Pagrindinis puslapis
METAR-TAF:

METAR-TAF

Oro uostai :

Vientianas, Laosas

platuma: 17-57N, ilguma: 102-34E, Aukštis: 171 m

Dabartinis oras

Ataskaita buvo paskelbta 1 valandą ir 18 minutes, ne 16:00 UTC
Vėjas 2 kt iš Pietryčių
Temperatūra 26°C
Drėgmė 84%
Slėgis 1008 hPa
Matomumas: 4000 m
rūkana

METAR: VLVT 311600Z 14002KT 4000 BR NSC 26/23 Q1008 NOSIG

Laikas: 00:18 (17:18 UTC)

Prognozė

Ataskaita buvo paskelbta 6 valandos ir 18 minutes, ne 11:00 UTC
Prognozė galioja nuo 31 metu 12 UTC su 01 metu 12 UTC
Vėjas 4 kt iš Šiaurės/Šiaurės Vakarų
Matomumas: 5000 m
Mažai debesys ne aukštis 2000 ft
Mažai debesys ne aukštis 20000 ft
dūmai
Laikinai
nuo 31 metu 14 UTC su 31 metu 20 UTC
Matomumas: 4000 m
Mažai debesys ne aukštis 5000 ft
rūkana

TAF: VLVT 311100Z 3112/0112 34004KT 5000 FU FEW020 FEW200 TEMPO 3114/3120 4000 BR FEW050

Orai ataskaitas ir orų prognozės (METAR, TAF).

turimą stotys yra geltonos ir raudonos taškus žemėlapyje.

Perkelti pele per norėdami pamatyti stoties vardą.

Tada spustelėkite, norėdami matyti oro stebėjimo ir prognozės.

Norėdami pakeisti žemėlapį: spustelėkite ant žalios mygtukų su juodo kryžiaus žemyn,; žalią mygtuką su brūkšneliu, jei norite nutolinti; arba žalių rodyklių gretimoms žemėlapius.


METAR-TAF: